Flight Track Log - Related Links

Times and Time Zones

All times are in EDT time to prevent confusion due to time zone crossing. See the FLG3762 flight status page for this flight to view local times or setup timezone preferences in your user account.

Time Position Orientation Groundspeed Altitude Reporting Facility
EDT Latitude Longitude Course Direction KTS MPH feet Rate Location/Type
Sat 07:34:30 AM 42.1986 -85.5567 291° West 165 190 2,500  Level Chicago Center
Sat 07:35:31 AM 42.1667 -85.6050 228° Southwest 207 238 4,400 2,016 Climbing Chicago Center
Sat 07:36:32 AM 42.1994 -85.6861 299° West 248 285 6,600 2,508 Climbing Chicago Center
Sat 07:37:00 AM 42.4156 -86.0135 294° West  Level FlightAware Approximate
Sat 07:37:33 AM 42.2556 -85.7742 311° West 275 316 9,500  Level Chicago Center
Sat 07:38:00 AM 42.4606 -86.1319 294° West  Level FlightAware Approximate
Sat 07:38:34 AM 42.3094 -85.8578 311° West 290 334 11,700  Level Chicago Center
Sat 07:39:00 AM 42.5081 -86.2451 291° West  Level FlightAware Approximate
Sat 07:39:35 AM 42.3661 -85.9475 311° West 310 357 13,700  Level Chicago Center
Sat 07:40:36 AM 42.4256 -86.0403 311° West 322 371 15,900 1,869 Climbing Chicago Center
Sat 07:41:37 AM 42.4847 -86.1336 311° West 327 376 17,500 1,475 Climbing Chicago Center
Sat 07:42:38 AM 42.5433 -86.2322 309° West 334 384 18,900 1,073 Climbing Chicago Center
Sat 07:43:40 AM 42.5889 -86.3464 298° West 339 390 19,700 732 Climbing Chicago Center
Sat 07:44:41 AM 42.6253 -86.4753 291° West 362 417 20,400 787 Climbing Chicago Center
Sat 07:45:42 AM 42.6642 -86.6114 291° West 380 437 21,300 934 Climbing Chicago Center
Sat 07:46:43 AM 42.7017 -86.7483 290° West 383 441 22,300 984 Climbing Chicago Center
Sat 07:47:44 AM 42.7392 -86.8847 291° West 384 442 23,300 934 Climbing Chicago Center
Sat 07:48:45 AM 42.7847 -87.0500 291° West 385 443 24,200 787 Climbing Chicago Center
Sat 07:49:46 AM 42.8236 -87.1883 291° West 391 450 24,900 689 Climbing Chicago Center
Sat 07:50:47 AM 42.8597 -87.3300 289° West 395 455 25,600 689 Climbing Chicago Center
Sat 07:51:48 AM 42.8983 -87.4600 292° West 391 450 26,300 689 Climbing Chicago Center
Sat 07:52:49 AM 42.9358 -87.6017 290° West 393 452 27,000 590 Climbing Chicago Center
Sat 07:53:50 AM 42.9725 -87.7433 290° West 396 456 27,500 492 Climbing Chicago Center
Sat 07:54:51 AM 43.0178 -87.9114 290° West 401 461 28,000 244 Climbing Chicago Center
Sat 07:55:53 AM 43.0561 -88.0558 290° West 403 464 28,000  Level Chicago Center
Sat 07:56:54 AM 43.0947 -88.1989 290° West 399 459 28,000  Level Chicago Center
Sat 07:57:55 AM 43.1436 -88.3294 297° West 390 449 28,000  Level Chicago Center
Sat 07:58:56 AM 43.2119 -88.4475 308° West 392 451 28,000  Level Chicago Center
Sat 07:59:57 AM 43.2803 -88.5650 309° West 390 449 28,000  Level Chicago Center
Sat 08:01:00 AM 43.3489 -88.6836 309° West 390 449 28,000  Level Chicago Center
Sat 08:02:01 AM 43.4178 -88.8017 309° West 390 449 28,000  Level Chicago Center
Sat 08:03:02 AM 43.4869 -88.9206 309° West 395 455 28,000  Level Chicago Center
Sat 08:04:03 AM 43.5567 -89.0406 309° West 397 457 28,000  Level Chicago Center
Sat 08:05:05 AM 43.6269 -89.1639 308° West 404 465 28,000  Level Chicago Center
Sat 08:05:44 AM 43.6742 -89.2447 309° West 405 466 28,000  Level Minneapolis Center
Sat 08:06:45 AM 43.7439 -89.3686 308° West 407 468 28,000  Level Minneapolis Center
Sat 08:07:45 AM 43.8153 -89.4964 308° West 416 479 28,000  Level Minneapolis Center
Sat 08:08:46 AM 43.8881 -89.6242 308° West 422 486 28,000  Level Minneapolis Center
Sat 08:09:47 AM 43.9594 -89.7542 307° West 423 487 28,000  Level Minneapolis Center
Sat 08:10:48 AM 44.0322 -89.8817 308° West 423 487 28,000  Level Minneapolis Center
Sat 08:11:48 AM 44.1044 -90.0136 307° West 425 489 28,000  Level Minneapolis Center
Sat 08:12:49 AM 44.1758 -90.1439 307° West 425 489 28,000  Level Minneapolis Center
Sat 08:13:50 AM 44.2606 -90.2964 308° West 426 490 28,000  Level Minneapolis Center
Sat 08:14:51 AM 44.3336 -90.4308 307° West 431 496 28,000 -198 Level Minneapolis Center
Sat 08:15:51 AM 44.4069 -90.5622 308° West 430 495 27,600 -595 Descending Minneapolis Center
Sat 08:16:52 AM 44.4800 -90.6917 308° West 425 489 26,800 -787 Descending Minneapolis Center
Sat 08:17:53 AM 44.5483 -90.8172 307° West 409 471 26,000 -761 Descending Minneapolis Center
Sat 08:19:06 AM 44.6072 -90.9314 306° West 398 458 25,100 -940 Descending Minneapolis Center
Sat 08:20:07 AM 44.6600 -91.0933 295° West 385 443 23,900 -984 Descending Minneapolis Center
Sat 08:21:08 AM 44.6958 -91.2025 295° West 385 443 23,100 -984 Descending Minneapolis Center
Sat 08:22:09 AM 44.7500 -91.3628 295° West 382 440 21,900 -1,230 Descending Minneapolis Center
Sat 08:23:10 AM 44.7903 -91.5261 289° West 373 429 20,600 -1,377 Descending Minneapolis Center
Sat 08:24:11 AM 44.8153 -91.6678 284° West 373 429 19,100 -1,525 Descending Minneapolis Center
Sat 08:25:12 AM 44.8386 -91.8069 283° West 369 425 17,500 -1,623 Descending Minneapolis Center
Sat 08:26:13 AM 44.8614 -91.9450 283° West 364 419 15,800 -1,672 Descending Minneapolis Center
Sat 08:27:14 AM 44.8825 -92.0792 283° West 355 409 14,100 -1,672 Descending Minneapolis Center
Sat 08:28:15 AM 44.9039 -92.2131 283° West 351 404 12,400 -1,475 Descending Minneapolis Center
Sat 08:29:16 AM 44.9247 -92.3439 283° West 346 398 11,100 -639 Descending Minneapolis Center
Sat 08:30:17 AM 44.9450 -92.4706 283° West 335 386 11,100  Level Minneapolis Center
Sat 08:31:18 AM 44.9647 -92.6006 282° West 339 390 11,100  Level Minneapolis Center
Sat 08:32:19 AM 44.9789 -92.7319 279° West 342 394 11,100 -98 Level Minneapolis Center
Sat 08:33:20 AM 44.9544 -92.8817 257° West 327 376 10,900 -738 Descending Minneapolis Center
Sat 08:34:21 AM 44.9367 -92.9908 257° West 292 336 9,600 -1,328 Descending Minneapolis Center
Sat 08:35:22 AM 44.9383 -93.0919 271° West 278 320 8,200 -738 Descending Minneapolis Center
Sat 08:36:23 AM 44.9822 -93.1825 304° West 285 328 8,100 -689 Descending Minneapolis Center
Sat 08:37:24 AM 45.0250 -93.2708 304° West 276 318 6,800 -1,328 Descending Minneapolis Center
Sat 08:38:25 AM 45.0658 -93.3594 303° West 273 314 5,400 -1,033 Descending Minneapolis Center
Sat 08:39:26 AM 45.0803 -93.4447 284° West 241 277 4,700 -541 Descending Minneapolis Center
Sat 08:40:27 AM 45.0181 -93.4636 192° South 200 230 4,300 -341 Descending Minneapolis Center
Sat 08:41:29 AM 44.9772 -93.4178 142° Southeast 194 223 4,000 -585 Descending Minneapolis Center
Sat 08:42:30 AM 44.9511 -93.3547 120° Southeast 186 214 3,100 -885 Descending Minneapolis Center

Login

Don't have an account? Register now (free) for customized features, flight alerts, and more!